createdAt,value
2018-04-19T00:00:12.909Z,87.70
2018-04-19T00:02:40.482Z,87.60
2018-04-19T00:05:08.063Z,87.80
2018-04-19T00:07:35.803Z,88.10
2018-04-19T00:10:03.344Z,88.10
2018-04-19T00:12:30.898Z,88.40
2018-04-19T00:14:59.220Z,88.70
2018-04-19T00:17:26.869Z,88.70
2018-04-19T00:19:54.533Z,88.90
2018-04-19T00:22:22.109Z,88.90
2018-04-19T00:24:49.659Z,89.10
2018-04-19T00:27:17.214Z,89.30
2018-04-19T00:29:44.762Z,89.70
2018-04-19T00:32:12.293Z,89.70
2018-04-19T00:34:40.619Z,90.10
2018-04-19T00:37:08.169Z,90.10
2018-04-19T00:39:35.718Z,90.20
2018-04-19T00:42:03.289Z,90.30
2018-04-19T00:44:30.835Z,90.30
2018-04-19T00:46:58.401Z,90.40
2018-04-19T00:49:25.971Z,90.50
2018-04-19T00:51:53.563Z,90.70
2018-04-19T00:54:21.075Z,90.70
2018-04-19T00:56:48.612Z,90.90
2018-04-19T00:59:16.216Z,91.00
2018-04-19T01:01:43.756Z,91.20
2018-04-19T01:04:11.289Z,91.30
2018-04-19T01:06:38.833Z,91.40
2018-04-19T01:09:06.480Z,91.40
2018-04-19T01:11:34.018Z,91.40
2018-04-19T01:14:01.672Z,91.90
2018-04-19T01:16:29.289Z,91.60
2018-04-19T01:18:56.832Z,91.70
2018-04-19T01:21:24.381Z,91.70
2018-04-19T01:23:52.694Z,91.80
2018-04-19T01:26:20.243Z,91.80
2018-04-19T01:28:47.782Z,91.90
2018-04-19T01:31:15.369Z,91.90
2018-04-19T01:33:42.930Z,92.00
2018-04-19T01:36:22.279Z,92.10
2018-04-19T01:38:49.830Z,92.10
2018-04-19T01:41:17.388Z,92.20
2018-04-19T01:43:44.916Z,92.10
2018-04-19T01:46:13.248Z,92.20
2018-04-19T01:48:40.820Z,92.20
2018-04-19T01:51:08.508Z,92.30
2018-04-19T01:53:36.092Z,92.30
2018-04-19T01:56:03.622Z,92.30
2018-04-19T01:58:31.195Z,92.40
2018-04-19T02:00:59.500Z,93.20
2018-04-19T02:03:27.032Z,92.80
2018-04-19T02:05:54.584Z,93.50
2018-04-19T02:08:22.882Z,93.60
2018-04-19T02:10:50.424Z,93.60
2018-04-19T02:13:17.950Z,93.70
2018-04-19T02:15:45.532Z,93.70
2018-04-19T02:18:13.928Z,93.90
2018-04-19T02:20:41.502Z,93.90
2018-04-19T02:23:09.021Z,93.90
2018-04-19T02:25:36.606Z,93.90
2018-04-19T02:28:04.164Z,94.10
2018-04-19T02:30:31.848Z,94.20
2018-04-19T02:32:59.364Z,94.30
2018-04-19T02:35:26.926Z,94.30
2018-04-19T02:37:54.498Z,94.70
2018-04-19T02:40:22.076Z,94.60
2018-04-19T02:42:49.650Z,94.70
2018-04-19T02:45:17.218Z,94.80
2018-04-19T02:47:44.843Z,94.80
2018-04-19T02:50:12.408Z,94.70
2018-04-19T02:52:40.026Z,94.70
2018-04-19T02:55:07.581Z,94.80
2018-04-19T02:57:35.117Z,94.70
2018-04-19T03:00:02.650Z,94.60
2018-04-19T03:02:30.235Z,94.60
2018-04-19T03:04:57.754Z,94.60
2018-04-19T03:07:25.291Z,94.60
2018-04-19T03:09:52.839Z,94.60
2018-04-19T03:12:20.404Z,94.50
2018-04-19T03:14:48.005Z,94.50
2018-04-19T03:17:15.528Z,94.50
2018-04-19T03:19:43.878Z,94.70
2018-04-19T03:22:11.435Z,94.70
2018-04-19T03:24:38.941Z,94.70
2018-04-19T03:27:07.261Z,94.70
2018-04-19T03:29:34.810Z,94.70
2018-04-19T03:32:02.512Z,94.70
2018-04-19T03:34:30.016Z,94.80
2018-04-19T03:36:57.565Z,94.80
2018-04-19T03:39:25.145Z,94.80
2018-04-19T03:41:52.720Z,94.80
2018-04-19T03:44:20.222Z,95.00
2018-04-19T03:46:48.509Z,95.10
2018-04-19T03:49:16.844Z,95.20
2018-04-19T03:51:44.364Z,95.20
2018-04-19T03:54:11.919Z,95.20
2018-04-19T03:56:39.452Z,95.20
2018-04-19T03:59:07.834Z,95.30
2018-04-19T04:01:35.499Z,95.20
2018-04-19T04:04:03.070Z,95.20
2018-04-19T04:06:30.634Z,95.50
2018-04-19T04:08:58.608Z,95.20
2018-04-19T04:11:27.023Z,95.20
2018-04-19T04:13:54.562Z,95.60
2018-04-19T04:16:33.909Z,95.30
2018-04-19T04:19:13.398Z,95.40
2018-04-19T04:24:44.239Z,95.30
2018-04-19T04:27:11.797Z,95.40
2018-04-19T04:29:39.355Z,95.30
2018-04-19T04:32:06.911Z,95.60
2018-04-19T04:34:34.446Z,95.00
2018-04-19T04:37:02.025Z,94.90
2018-04-19T04:39:29.564Z,95.00
2018-04-19T04:41:57.109Z,94.80
2018-04-19T04:44:24.741Z,94.80
2018-04-19T04:46:52.262Z,94.60
2018-04-19T04:49:19.786Z,94.20
2018-04-19T04:51:47.314Z,93.70
2018-04-19T04:54:14.827Z,93.60
2018-04-19T04:56:42.414Z,93.30
2018-04-19T04:59:09.937Z,93.00
2018-04-19T05:01:37.469Z,92.60
2018-04-19T05:04:05.004Z,92.10
2018-04-19T05:06:33.384Z,91.40
2018-04-19T05:09:01.704Z,90.30
2018-04-19T05:11:29.305Z,90.30
2018-04-19T05:13:56.845Z,89.70
2018-04-19T05:16:24.355Z,89.90
2018-04-19T05:18:51.879Z,88.30
2018-04-19T05:21:20.185Z,87.70
2018-04-19T05:23:47.726Z,87.60
2018-04-19T05:26:16.098Z,86.20
2018-04-19T05:28:43.607Z,86.90
2018-04-19T05:31:11.161Z,85.90
2018-04-19T05:33:38.701Z,84.60
2018-04-19T05:36:06.308Z,83.60
2018-04-19T05:38:33.815Z,82.60
2018-04-19T05:41:01.356Z,82.10
2018-04-19T05:43:28.911Z,81.30
2018-04-19T05:45:57.233Z,80.20
2018-04-19T05:48:24.735Z,80.20
2018-04-19T05:50:52.264Z,79.60
2018-04-19T05:53:20.543Z,78.40
2018-04-19T05:55:48.063Z,77.20
2018-04-19T05:58:15.642Z,76.80
2018-04-19T06:00:43.179Z,76.80
2018-04-19T06:03:10.788Z,75.20
2018-04-19T06:05:38.307Z,72.90
2018-04-19T06:08:05.856Z,71.90
2018-04-19T06:10:33.461Z,68.90
2018-04-19T06:13:00.998Z,68.90
2018-04-19T06:15:28.555Z,68.90
2018-04-19T06:17:56.102Z,67.00
2018-04-19T06:20:23.648Z,63.80
2018-04-19T06:22:51.184Z,61.50
2018-04-19T06:25:19.551Z,58.40
2018-04-19T06:27:47.106Z,58.40
2018-04-19T06:30:14.615Z,57.50
2018-04-19T06:32:42.457Z,56.20
2018-04-19T06:35:10.254Z,56.00
2018-04-19T06:37:37.862Z,55.50
2018-04-19T06:40:05.373Z,54.40
2018-04-19T06:42:32.952Z,53.50
2018-04-19T06:45:00.506Z,52.10
2018-04-19T06:47:28.041Z,52.30
2018-04-19T06:49:55.579Z,51.90
2018-04-19T06:52:23.140Z,51.90
2018-04-19T06:54:50.695Z,51.70
2018-04-19T06:57:18.258Z,51.50
2018-04-19T06:59:45.841Z,51.10
2018-04-19T07:02:13.380Z,50.60
2018-04-19T07:04:40.932Z,49.30
2018-04-19T07:07:09.251Z,46.60
2018-04-19T07:09:36.851Z,46.60
2018-04-19T07:12:04.450Z,45.60
2018-04-19T07:14:32.002Z,44.90
2018-04-19T07:16:59.534Z,43.50
2018-04-19T07:19:27.872Z,44.80
2018-04-19T07:21:55.405Z,44.70
2018-04-19T07:24:22.949Z,44.00
2018-04-19T07:26:50.469Z,44.00
2018-04-19T07:29:18.038Z,44.10
2018-04-19T07:31:46.712Z,41.10
2018-04-19T07:34:14.254Z,41.10
2018-04-19T07:36:41.758Z,41.20
2018-04-19T07:39:09.354Z,41.20
2018-04-19T07:41:36.958Z,41.90
2018-04-19T07:44:05.368Z,41.10
2018-04-19T07:46:32.951Z,41.00
2018-04-19T07:49:00.632Z,40.60
2018-04-19T07:51:28.184Z,39.10
2018-04-19T07:53:55.694Z,38.90
2018-04-19T07:56:23.227Z,40.20
2018-04-19T07:58:50.731Z,40.10
2018-04-19T08:01:18.292Z,41.80
2018-04-19T08:03:45.808Z,41.20
2018-04-19T08:06:14.163Z,40.30
2018-04-19T08:08:42.482Z,40.20
2018-04-19T08:11:10.785Z,38.90
2018-04-19T08:13:38.332Z,38.90
2018-04-19T08:16:05.853Z,38.20
2018-04-19T08:18:34.153Z,41.00
2018-04-19T08:21:01.675Z,41.00
2018-04-19T08:23:30.010Z,40.40
2018-04-19T08:25:57.567Z,40.40
2018-04-19T08:28:25.108Z,38.60
2018-04-19T08:30:52.632Z,39.30
2018-04-19T08:33:20.156Z,40.80
2018-04-19T08:35:47.702Z,40.30
2018-04-19T08:38:15.241Z,38.90
2018-04-19T08:40:42.822Z,38.40
2018-04-19T08:43:10.408Z,37.90
2018-04-19T08:45:37.940Z,36.80
2018-04-19T08:48:05.522Z,37.50
2018-04-19T08:50:33.097Z,37.00
2018-04-19T08:53:00.668Z,39.10
2018-04-19T08:55:28.240Z,39.90
2018-04-19T08:57:55.784Z,40.80
2018-04-19T09:00:23.325Z,41.00
2018-04-19T09:02:50.849Z,40.20
2018-04-19T09:05:18.510Z,40.00
2018-04-19T09:07:46.284Z,37.10
2018-04-19T09:10:13.839Z,36.90
2018-04-19T09:12:41.437Z,39.30
2018-04-19T09:15:09.047Z,38.40
2018-04-19T09:17:36.598Z,38.70
2018-04-19T09:20:04.190Z,38.80
2018-04-19T09:22:31.756Z,37.90
2018-04-19T09:24:59.322Z,38.50
2018-04-19T09:27:26.842Z,38.90
2018-04-19T09:29:54.390Z,38.20
2018-04-19T09:32:21.963Z,37.10
2018-04-19T09:34:49.574Z,35.30
2018-04-19T09:37:18.070Z,34.00
2018-04-19T09:39:45.600Z,34.60
2018-04-19T09:42:13.140Z,35.40
2018-04-19T09:44:40.735Z,34.90
2018-04-19T09:47:08.342Z,35.00
2018-04-19T09:49:35.894Z,35.30
2018-04-19T09:52:03.559Z,34.60
2018-04-19T09:54:31.100Z,35.40
2018-04-19T09:56:58.644Z,35.50
2018-04-19T09:59:26.960Z,34.40
2018-04-19T10:02:00.084Z,34.40
2018-04-19T10:04:30.424Z,34.20
2018-04-19T10:06:57.986Z,33.50
2018-04-19T10:09:25.593Z,33.50
2018-04-19T10:11:53.147Z,31.50
2018-04-19T10:14:20.716Z,32.60
2018-04-19T10:16:48.268Z,33.20
2018-04-19T10:19:15.824Z,35.00
2018-04-19T10:21:43.382Z,35.00
2018-04-19T10:24:11.051Z,33.20
2018-04-19T10:26:38.565Z,31.90
2018-04-19T10:29:06.878Z,31.10
2018-04-19T10:31:34.414Z,31.10
2018-04-19T10:34:02.019Z,29.90
2018-04-19T10:36:29.580Z,31.10
2018-04-19T10:38:57.151Z,34.60
2018-04-19T10:41:24.722Z,34.40
2018-04-19T10:43:52.252Z,33.60
2018-04-19T10:46:19.803Z,30.90
2018-04-19T10:48:47.353Z,30.90
2018-04-19T10:51:14.909Z,32.60
2018-04-19T10:53:42.481Z,31.50
2018-04-19T10:56:10.048Z,29.80
2018-04-19T10:58:37.622Z,28.60
2018-04-19T11:01:05.199Z,28.00
2018-04-19T11:03:32.797Z,27.00
2018-04-19T11:06:00.374Z,27.20
2018-04-19T11:08:27.930Z,25.40
2018-04-19T11:10:55.458Z,25.70
2018-04-19T11:13:23.747Z,27.50
2018-04-19T11:15:51.337Z,27.50
2018-04-19T11:18:18.947Z,26.10
2018-04-19T11:20:46.474Z,26.80
2018-04-19T11:23:14.055Z,26.70
2018-04-19T11:25:41.605Z,25.30
2018-04-19T11:28:09.157Z,25.30
2018-04-19T11:30:36.765Z,25.00
2018-04-19T11:33:04.327Z,26.70
2018-04-19T11:35:31.907Z,27.30
2018-04-19T11:37:59.449Z,25.70
2018-04-19T11:40:26.979Z,25.20
2018-04-19T11:42:55.313Z,24.50
2018-04-19T11:45:22.869Z,24.40
2018-04-19T11:47:50.432Z,26.20
2018-04-19T11:50:18.028Z,26.70
2018-04-19T11:52:46.368Z,26.70
2018-04-19T11:55:13.921Z,26.70
2018-04-19T11:57:41.515Z,25.30
2018-04-19T12:00:09.093Z,23.50
2018-04-19T12:02:37.400Z,21.90
2018-04-19T12:05:04.949Z,21.90
2018-04-19T12:07:32.520Z,22.50
2018-04-19T12:10:00.063Z,22.40
2018-04-19T12:12:27.605Z,22.30
2018-04-19T12:14:55.209Z,23.40
2018-04-19T12:17:22.755Z,24.00
2018-04-19T12:19:50.447Z,23.30
2018-04-19T12:22:18.007Z,22.40
2018-04-19T12:24:46.425Z,20.70
2018-04-19T12:27:14.780Z,21.30
2018-04-19T12:29:42.316Z,20.80
2018-04-19T12:32:09.879Z,20.90
2018-04-19T12:34:37.486Z,22.60
2018-04-19T12:37:05.918Z,24.00
2018-04-19T12:39:33.469Z,24.00
2018-04-19T12:42:00.992Z,24.30
2018-04-19T12:44:29.368Z,24.10
2018-04-19T12:46:56.927Z,24.20
2018-04-19T12:49:25.324Z,23.60
2018-04-19T12:51:52.886Z,23.50
2018-04-19T12:54:20.460Z,22.10
2018-04-19T12:56:47.996Z,22.10
2018-04-19T12:59:15.938Z,21.40
2018-04-19T13:01:43.504Z,20.40
2018-04-19T13:04:11.104Z,20.40
2018-04-19T13:06:38.669Z,19.70
2018-04-19T13:09:06.256Z,19.70
2018-04-19T13:11:33.842Z,20.20
2018-04-19T13:14:02.133Z,18.60
2018-04-19T13:16:29.686Z,18.60
2018-04-19T13:18:57.276Z,19.10
2018-04-19T13:21:24.860Z,19.60
2018-04-19T13:23:52.434Z,20.20
2018-04-19T13:26:19.959Z,20.40
2018-04-19T13:28:47.531Z,22.60
2018-04-19T13:31:15.053Z,22.40
2018-04-19T13:33:42.622Z,22.50
2018-04-19T13:36:10.183Z,22.80
2018-04-19T13:38:37.734Z,22.40
2018-04-19T13:41:05.284Z,23.10
2018-04-19T13:43:32.983Z,23.60
2018-04-19T13:46:00.564Z,24.80
2018-04-19T13:48:28.908Z,24.80
2018-04-19T13:50:56.440Z,24.30
2018-04-19T13:53:23.986Z,24.20
2018-04-19T13:55:51.528Z,25.10
2018-04-19T13:58:19.066Z,25.20
2018-04-19T14:00:46.577Z,25.40
2018-04-19T14:03:14.192Z,26.20
2018-04-19T14:05:41.749Z,27.40
2018-04-19T14:08:09.338Z,29.10
2018-04-19T14:10:36.897Z,29.90
2018-04-19T14:13:05.274Z,29.80
2018-04-19T14:15:33.591Z,27.80
2018-04-19T14:18:01.120Z,27.80
2018-04-19T14:20:28.654Z,25.50
2018-04-19T14:22:56.205Z,24.80
2018-04-19T14:25:23.782Z,24.90
2018-04-19T14:27:51.336Z,26.30
2018-04-19T14:30:18.882Z,27.50
2018-04-19T14:32:46.458Z,28.20
2018-04-19T14:35:14.001Z,29.00
2018-04-19T14:37:41.542Z,29.10
2018-04-19T14:40:09.151Z,29.10
2018-04-19T14:42:36.693Z,29.40
2018-04-19T14:45:05.957Z,30.20
2018-04-19T14:47:33.530Z,30.20
2018-04-19T14:50:01.060Z,30.50
2018-04-19T14:52:28.684Z,31.10
2018-04-19T14:54:56.240Z,32.00
2018-04-19T14:57:23.818Z,31.00
2018-04-19T14:59:51.355Z,31.60
2018-04-19T15:02:19.657Z,31.70
2018-04-19T15:04:47.187Z,31.70
2018-04-19T15:07:15.592Z,30.60
2018-04-19T15:09:43.218Z,30.60
2018-04-19T15:12:11.564Z,31.20
2018-04-19T15:14:39.156Z,31.60
2018-04-19T15:17:07.432Z,31.30
2018-04-19T15:19:35.746Z,31.40
2018-04-19T15:22:03.296Z,31.30
2018-04-19T15:24:30.821Z,31.80
2018-04-19T15:26:59.174Z,32.00
2018-04-19T15:29:26.707Z,32.00
2018-04-19T15:31:54.290Z,32.00
2018-04-19T15:34:22.597Z,32.20
2018-04-19T15:36:50.185Z,32.80
2018-04-19T15:39:17.767Z,31.50
2018-04-19T15:41:45.287Z,31.80
2018-04-19T15:44:12.852Z,31.20
2018-04-19T15:46:40.402Z,31.00
2018-04-19T15:49:07.928Z,31.20
2018-04-19T15:51:35.492Z,31.40
2018-04-19T15:54:03.028Z,31.70
2018-04-19T15:56:30.604Z,32.00
2018-04-19T15:58:58.229Z,31.10
2018-04-19T16:01:25.779Z,31.10
2018-04-19T16:03:53.340Z,31.10
2018-04-19T16:06:20.903Z,31.20
2018-04-19T16:08:48.479Z,31.00
2018-04-19T16:11:16.132Z,30.90
2018-04-19T16:13:44.434Z,31.40
2018-04-19T16:16:12.039Z,31.40
2018-04-19T16:18:40.342Z,31.70
2018-04-19T16:21:07.945Z,31.70
2018-04-19T16:23:35.477Z,32.00
2018-04-19T16:26:03.020Z,32.20
2018-04-19T16:28:30.573Z,32.60
2018-04-19T16:30:58.179Z,32.80
2018-04-19T16:33:25.739Z,33.10
2018-04-19T16:35:54.248Z,33.30
2018-04-19T16:38:22.574Z,33.80
2018-04-19T16:40:50.122Z,33.80
2018-04-19T16:43:17.652Z,34.00
2018-04-19T16:45:45.249Z,33.80
2018-04-19T16:48:12.789Z,34.50
2018-04-19T16:50:40.323Z,34.60
2018-04-19T16:53:07.873Z,34.90
2018-04-19T16:55:36.173Z,35.30
2018-04-19T16:58:03.812Z,35.30
2018-04-19T17:00:32.113Z,35.30
2018-04-19T17:02:59.737Z,35.20
2018-04-19T17:05:27.270Z,35.50
2018-04-19T17:07:54.816Z,35.50
2018-04-19T17:10:22.385Z,35.70
2018-04-19T17:12:50.686Z,35.80
2018-04-19T17:15:18.288Z,36.10
2018-04-19T17:17:45.833Z,36.10
2018-04-19T17:20:13.374Z,36.40
2018-04-19T17:22:41.660Z,36.70
2018-04-19T17:25:10.006Z,37.30
2018-04-19T17:27:38.860Z,36.50
2018-04-19T17:30:06.411Z,36.80
2018-04-19T17:32:33.985Z,36.90
2018-04-19T17:35:01.524Z,37.10
2018-04-19T17:37:29.073Z,37.30
2018-04-19T17:39:56.641Z,37.70
2018-04-19T17:42:24.149Z,37.90
2018-04-19T17:44:51.710Z,38.00
2018-04-19T17:47:20.453Z,38.00
2018-04-19T17:49:47.992Z,38.00
2018-04-19T17:52:15.508Z,38.20
2018-04-19T17:54:43.086Z,38.70
2018-04-19T17:57:10.622Z,39.10
2018-04-19T17:59:38.302Z,39.40
2018-04-19T18:02:05.828Z,39.70
2018-04-19T18:04:33.362Z,40.00
2018-04-19T18:07:00.934Z,40.40
2018-04-19T18:09:28.498Z,40.70
2018-04-19T18:11:56.049Z,40.90
2018-04-19T18:14:23.560Z,40.90
2018-04-19T18:16:52.844Z,41.90
2018-04-19T18:19:20.541Z,41.90
2018-04-19T18:21:48.971Z,42.90
2018-04-19T18:24:16.623Z,42.80
2018-04-19T18:26:44.363Z,43.30
2018-04-19T18:29:11.984Z,43.60
2018-04-19T18:31:39.646Z,43.50
2018-04-19T18:34:07.993Z,44.10
2018-04-19T18:36:35.718Z,44.00
2018-04-19T18:39:03.412Z,44.10
2018-04-19T18:41:31.008Z,44.30
2018-04-19T18:43:58.587Z,44.70
2018-04-19T18:46:26.128Z,45.20
2018-04-19T18:48:53.669Z,45.50
2018-04-19T18:51:21.230Z,45.80
2018-04-19T18:53:48.896Z,46.30
2018-04-19T18:56:16.450Z,47.10
2018-04-19T18:58:44.039Z,48.00
2018-04-19T19:01:12.345Z,48.80
2018-04-19T19:03:39.956Z,48.70
2018-04-19T19:06:07.469Z,49.30
2018-04-19T19:08:35.015Z,49.90
2018-04-19T19:11:02.605Z,49.80
2018-04-19T19:13:31.842Z,50.60
2018-04-19T19:16:14.627Z,50.90
2018-04-19T19:18:54.279Z,51.30
2018-04-19T19:21:21.905Z,51.10
2018-04-19T19:23:50.363Z,51.60
2018-04-19T19:26:17.898Z,52.30
2018-04-19T19:28:46.191Z,52.20
2018-04-19T19:31:13.796Z,52.10
2018-04-19T19:33:41.300Z,52.60
2018-04-19T19:36:09.604Z,54.00
2018-04-19T19:38:37.187Z,54.00
2018-04-19T19:41:04.725Z,53.90
2018-04-19T19:43:32.282Z,54.20
2018-04-19T19:45:59.850Z,54.60
2018-04-19T19:48:27.404Z,54.70
2018-04-19T19:50:54.926Z,55.10
2018-04-19T19:53:22.554Z,55.50
2018-04-19T19:55:50.184Z,55.60
2018-04-19T19:58:17.736Z,55.70
2018-04-19T20:00:45.309Z,55.70
2018-04-19T20:03:12.909Z,56.10
2018-04-19T20:05:40.474Z,56.50
2018-04-19T20:08:08.007Z,56.90
2018-04-19T20:10:35.639Z,57.60
2018-04-19T20:13:03.190Z,57.80
2018-04-19T20:15:30.715Z,58.10
2018-04-19T20:17:59.045Z,58.70
2018-04-19T20:20:26.580Z,58.60
2018-04-19T20:22:54.163Z,59.20
2018-04-19T20:25:21.735Z,58.90
2018-04-19T20:27:49.285Z,58.90
2018-04-19T20:30:16.841Z,59.00
2018-04-19T20:32:44.407Z,59.40
2018-04-19T20:35:11.947Z,59.80
2018-04-19T20:37:39.476Z,59.90
2018-04-19T20:40:07.034Z,60.20
2018-04-19T20:42:34.576Z,60.30
2018-04-19T20:45:02.945Z,60.80
2018-04-19T20:47:30.462Z,60.80
2018-04-19T20:49:58.022Z,61.00
2018-04-19T20:52:25.554Z,61.50
2018-04-19T20:54:54.465Z,61.70
2018-04-19T20:57:22.018Z,62.00
2018-04-19T20:59:49.616Z,62.40
2018-04-19T21:02:17.155Z,62.90
2018-04-19T21:04:44.744Z,63.20
2018-04-19T21:07:12.325Z,63.30
2018-04-19T21:09:40.649Z,64.00
2018-04-19T21:12:08.173Z,64.00
2018-04-19T21:14:36.509Z,64.60
2018-04-19T21:17:04.085Z,64.40
2018-04-19T21:19:31.608Z,65.20
2018-04-19T21:21:59.155Z,65.30
2018-04-19T21:24:26.717Z,65.80
2018-04-19T21:26:54.281Z,66.00
2018-04-19T21:29:21.814Z,66.60
2018-04-19T21:31:49.483Z,66.90
2018-04-19T21:34:17.043Z,67.30
2018-04-19T21:36:44.648Z,67.60
2018-04-19T21:39:12.174Z,67.70
2018-04-19T21:41:39.694Z,67.90
2018-04-19T21:44:08.022Z,68.40
2018-04-19T21:46:35.572Z,68.40
2018-04-19T21:49:03.160Z,68.70
2018-04-19T21:51:30.698Z,69.00
2018-04-19T21:53:58.997Z,69.70
2018-04-19T21:56:26.511Z,69.40
2018-04-19T21:58:54.484Z,69.60
2018-04-19T22:01:22.009Z,70.00
2018-04-19T22:03:50.325Z,70.40
2018-04-19T22:06:17.863Z,70.30
2018-04-19T22:08:45.459Z,70.20
2018-04-19T22:11:12.959Z,70.60
2018-04-19T22:13:40.831Z,70.90
2018-04-19T22:16:08.385Z,71.20
2018-04-19T22:18:36.673Z,71.50
2018-04-19T22:21:04.215Z,71.50
2018-04-19T22:23:32.479Z,71.80
2018-04-19T22:26:00.248Z,71.80
2018-04-19T22:28:27.748Z,72.10
2018-04-19T22:30:56.329Z,72.30
2018-04-19T22:33:23.945Z,72.30
2018-04-19T22:35:51.477Z,72.50
2018-04-19T22:38:19.065Z,72.50
2018-04-19T22:40:46.565Z,72.90
2018-04-19T22:43:14.114Z,73.00
2018-04-19T22:45:41.658Z,73.10
2018-04-19T22:48:09.971Z,73.80
2018-04-19T22:50:37.541Z,73.60
2018-04-19T22:53:05.820Z,74.00
2018-04-19T22:55:33.369Z,74.00
2018-04-19T22:58:00.891Z,74.20
2018-04-19T23:00:29.211Z,74.50
2018-04-19T23:02:56.775Z,74.50
2018-04-19T23:05:24.306Z,74.80
2018-04-19T23:07:51.813Z,74.90
2018-04-19T23:10:19.373Z,75.10
2018-04-19T23:12:46.898Z,75.70
2018-04-19T23:15:14.428Z,75.90
2018-04-19T23:17:41.979Z,76.00
2018-04-19T23:20:10.266Z,76.00
2018-04-19T23:22:37.803Z,76.00
2018-04-19T23:25:06.091Z,76.20
2018-04-19T23:27:34.405Z,76.60
2018-04-19T23:30:02.050Z,76.40
2018-04-19T23:32:29.622Z,76.60
2018-04-19T23:34:57.180Z,76.40
2018-04-19T23:37:24.709Z,76.20
2018-04-19T23:39:53.015Z,76.10
2018-04-19T23:42:20.541Z,76.00
2018-04-19T23:44:48.833Z,76.00
2018-04-19T23:47:16.356Z,75.90
2018-04-19T23:49:43.897Z,76.20
2018-04-19T23:52:11.402Z,76.40
2018-04-19T23:54:38.957Z,76.60
2018-04-19T23:57:06.492Z,76.80
2018-04-19T23:59:34.790Z,78.10
